Time;durP1;ratioP1;P1;durP2;ratioP2;P2;SDS_P1;SDS_P2;PMS_P1;PMS_P2;Temp;Humidity;BMP_temperature;BMP_pressure;BME280_temperature;BME280_humidity;BME280_pressure;Samples;Min_cycle;Max_cycle;Signal;HPM_P1;HPM_P2
2022/08/20 00:01:09;;;;;;;;;;;;;;;23.69;41.72;101513.47;7287531;19;153265;-59
2022/08/20 00:03:40;;;;;;;;;;;;;;;23.71;41.70;101519.59;7285141;19;152232;-60
2022/08/20 00:06:20;;;;;;;;;;;;;;;23.71;41.75;101516.78;7285111;19;152355;-60
2022/08/20 00:08:47;;;;;;;;;;;;;;;23.71;41.97;101525.25;7285045;19;152649;-59
2022/08/20 00:11:16;;;;;;;;;;;;;;;23.75;41.72;101525.47;7292763;19;152454;-59
2022/08/20 00:13:47;;;;;;;;;;;;;;;23.70;42.02;101529.25;7285539;19;152350;-59
2022/08/20 00:16:15;;;;;;;;;;;;;;;23.69;42.17;101519.09;7284697;19;155147;-59
2022/08/20 00:18:43;;;;;;;;;;;;;;;23.69;41.95;101524.75;7285691;19;152153;-60
2022/08/20 00:21:11;;;;;;;;;;;;;;;23.68;42.22;101517.44;7284622;19;152747;-59
2022/08/20 00:23:50;;;;;;;;;;;;;;;23.67;42.04;101527.03;7285076;19;154084;-59
2022/08/20 00:26:17;;;;;;;;;;;;;;;23.70;42.28;101528.41;7285522;19;151797;-59
2022/08/20 00:28:45;;;;;;;;;;;;;;;23.76;42.07;101515.84;7285967;19;153113;-59
2022/08/20 00:31:16;;;;;;;;;;;;;;;23.72;41.91;101514.81;7292616;19;152637;-59
2022/08/20 00:33:46;;;;;;;;;;;;;;;23.67;42.12;101515.75;7284551;19;153996;-59
2022/08/20 00:36:16;;;;;;;;;;;;;;;23.66;41.87;101516.09;7284392;19;153684;-59
2022/08/20 00:38:44;;;;;;;;;;;;;;;23.69;42.20;101512.63;7282738;19;152002;-59
2022/08/20 00:41:14;;;;;;;;;;;;;;;23.63;42.13;101513.88;7286953;19;153879;-59
2022/08/20 00:43:45;;;;;;;;;;;;;;;23.70;42.11;101517.13;7283459;19;154147;-59
2022/08/20 00:46:15;;;;;;;;;;;;;;;23.61;42.38;101511.41;7286155;19;152724;-60
2022/08/20 00:48:43;;;;;;;;;;;;;;;23.61;42.08;101508.56;7284305;19;152520;-59
2022/08/20 00:51:15;;;;;;;;;;;;;;;23.60;42.31;101506.06;7283392;19;153437;-59
2022/08/20 00:53:46;;;;;;;;;;;;;;;23.60;42.58;101509.72;7290132;19;153026;-59
2022/08/20 00:56:13;;;;;;;;;;;;;;;23.61;42.07;101510.56;7283918;19;154593;-60
2022/08/20 00:58:41;;;;;;;;;;;;;;;23.61;42.46;101500.09;7284738;19;152716;-59
2022/08/20 01:01:08;;;;;;;;;;;;;;;23.68;42.32;101514.59;7286308;19;153451;-59
2022/08/20 01:03:41;;;;;;;;;;;;;;;23.64;42.34;101516.41;7283123;19;154065;-59
2022/08/20 01:06:11;;;;;;;;;;;;;;;23.61;42.62;101519.84;7282465;19;152768;-59
2022/08/20 01:08:39;;;;;;;;;;;;;;;23.65;42.57;101523.72;7284658;19;153996;-59
2022/08/20 01:11:09;;;;;;;;;;;;;;;23.60;42.30;101528.63;7284207;19;153724;-59
2022/08/20 01:13:40;;;;;;;;;;;;;;;23.56;42.67;101525.59;7284159;19;152524;-59
2022/08/20 01:16:15;;;;;;;;;;;;;;;23.57;42.72;101527.28;7291161;19;152130;-59
2022/08/20 01:18:45;;;;;;;;;;;;;;;23.59;42.56;101532.59;7283379;19;153073;-59
2022/08/20 01:21:12;;;;;;;;;;;;;;;23.58;42.35;101534.56;7283232;19;153048;-59
2022/08/20 01:23:40;;;;;;;;;;;;;;;23.60;42.91;101531.44;7283467;19;153706;-59
2022/08/20 01:26:20;;;;;;;;;;;;;;;23.48;42.73;101532.81;7282280;19;151801;-59
2022/08/20 01:28:55;;;;;;;;;;;;;;;23.53;42.80;101531.84;7284495;19;153217;-59
2022/08/20 01:31:25;;;;;;;;;;;;;;;23.55;42.83;101535.22;7284726;19;153908;-60
2022/08/20 01:33:53;;;;;;;;;;;;;;;23.52;42.58;101537.84;7281438;19;154216;-59
2022/08/20 01:36:21;;;;;;;;;;;;;;;23.46;42.77;101531.47;7284138;19;154266;-59
2022/08/20 01:38:48;;;;;;;;;;;;;;;23.48;42.97;101529.19;7289454;19;154022;-59
2022/08/20 01:41:38;;;;;;;;;;;;;;;23.45;42.87;101536.25;7285155;19;153056;-59
2022/08/20 01:44:05;;;;;;;;;;;;;;;23.46;43.35;101526.66;7283234;19;153842;-59
2022/08/20 01:46:42;;;;;;;;;;;;;;;23.43;43.10;101521.63;7284117;19;152884;-59
2022/08/20 01:49:12;;;;;;;;;;;;;;;23.47;43.33;101521.84;7281596;19;152784;-59
2022/08/20 01:51:49;;;;;;;;;;;;;;;23.50;43.22;101512.75;7282863;19;152274;-59
2022/08/20 01:54:16;;;;;;;;;;;;;;;23.47;42.94;101516.22;7281493;19;152211;-59
2022/08/20 01:56:54;;;;;;;;;;;;;;;23.48;43.20;101515.06;7283507;19;153416;-59
2022/08/20 01:59:23;;;;;;;;;;;;;;;23.44;43.20;101522.47;7278517;19;153950;-59
2022/08/20 02:01:51;;;;;;;;;;;;;;;23.43;43.32;101518.81;7292528;19;152073;-59
2022/08/20 02:04:18;;;;;;;;;;;;;;;23.43;43.42;101518.81;7277882;19;154357;-59
2022/08/20 02:06:47;;;;;;;;;;;;;;;23.47;43.20;101519.88;7283379;19;152809;-59
2022/08/20 02:09:23;;;;;;;;;;;;;;;23.46;43.32;101521.00;7282505;19;152086;-59
2022/08/20 02:11:52;;;;;;;;;;;;;;;23.45;43.35;101526.97;7281929;19;153346;-59
2022/08/20 02:14:19;;;;;;;;;;;;;;;23.38;43.55;101527.38;7280934;19;152084;-59
2022/08/20 02:16:46;;;;;;;;;;;;;;;23.37;43.74;101527.66;7280869;19;152873;-59
2022/08/20 02:19:26;;;;;;;;;;;;;;;23.36;43.66;101526.00;7278426;19;152374;-60
2022/08/20 02:21:55;;;;;;;;;;;;;;;23.37;43.68;101530.50;7284464;19;152667;-59
2022/08/20 02:24:23;;;;;;;;;;;;;;;23.37;43.54;101527.66;7288373;19;153722;-59
2022/08/20 02:26:51;;;;;;;;;;;;;;;23.35;43.47;101530.78;7282815;19;152033;-60
2022/08/20 02:29:18;;;;;;;;;;;;;;;23.35;43.57;101530.78;7281740;19;152325;-59
2022/08/20 02:31:45;;;;;;;;;;;;;;;23.37;43.40;101527.66;7282767;19;153007;-59
2022/08/20 02:34:35;;;;;;;;;;;;;;;23.43;43.62;101529.25;7279066;19;153342;-60
2022/08/20 02:37:03;;;;;;;;;;;;;;;23.37;43.89;101524.84;7283496;19;153369;-59
2022/08/20 02:39:30;;;;;;;;;;;;;;;23.37;43.44;101522.03;7281259;19;153254;-59
2022/08/20 02:41:57;;;;;;;;;;;;;;;23.37;43.46;101533.31;7281022;19;152358;-59
2022/08/20 02:44:24;;;;;;;;;;;;;;;23.34;43.86;101523.50;7286621;19;153319;-59
2022/08/20 02:46:51;;;;;;;;;;;;;;;23.33;43.92;101526.63;7282541;19;153119;-59
2022/08/20 02:49:19;;;;;;;;;;;;;;;23.35;43.97;101524.31;7279304;19;153260;-60
2022/08/20 02:51:46;;;;;;;;;;;;;;;23.37;43.82;101519.22;7282248;19;153381;-59
2022/08/20 02:54:13;;;;;;;;;;;;;;;23.38;43.71;101524.53;7281421;19;152905;-59
2022/08/20 02:56:40;;;;;;;;;;;;;;;23.41;43.59;101523.06;7283177;19;152706;-60
2022/08/20 02:59:07;;;;;;;;;;;;;;;23.39;43.96;101522.56;7280237;19;152783;-59
2022/08/20 03:01:38;;;;;;;;;;;;;;;23.38;43.87;101518.06;7282173;19;152137;-59
2022/08/20 03:04:05;;;;;;;;;;;;;;;23.37;43.92;101522.88;7278215;19;152639;-59
2022/08/20 03:06:32;;;;;;;;;;;;;;;23.36;44.10;101521.19;7288919;19;153236;-59
2022/08/20 03:08:59;;;;;;;;;;;;;;;23.37;43.66;101519.22;7281734;19;154410;-59
2022/08/20 03:11:26;;;;;;;;;;;;;;;23.34;44.02;101517.88;7279593;19;153453;-59
2022/08/20 03:13:57;;;;;;;;;;;;;;;23.35;43.92;101513.88;7277255;19;153333;-59
2022/08/20 03:16:24;;;;;;;;;;;;;;;23.37;43.95;101511.59;7283888;19;153227;-59
2022/08/20 03:18:50;;;;;;;;;;;;;;;23.35;44.10;101510.22;7279494;19;153653;-59
2022/08/20 03:21:17;;;;;;;;;;;;;;;23.33;44.15;101510.56;7280549;19;152324;-59
2022/08/20 03:23:46;;;;;;;;;;;;;;;23.35;44.21;101511.06;7281251;19;152714;-59
2022/08/20 03:26:13;;;;;;;;;;;;;;;23.34;44.36;101505.75;7280661;19;153272;-59
2022/08/20 03:28:40;;;;;;;;;;;;;;;23.29;44.16;101512.34;7289567;19;152652;-59
2022/08/20 03:31:07;;;;;;;;;;;;;;;23.31;44.28;101512.84;7287428;19;154141;-59
2022/08/20 03:33:38;;;;;;;;;;;;;;;23.26;44.22;101521.41;7287429;19;154254;-59
2022/08/20 03:36:19;;;;;;;;;;;;;;;23.28;44.58;101513.47;7285635;19;153150;-59
2022/08/20 03:38:55;;;;;;;;;;;;;;;23.28;44.16;101518.28;7283720;19;154685;-59
2022/08/20 03:41:22;;;;;;;;;;;;;;;23.29;44.53;101520.78;7288652;19;152428;-59
2022/08/20 03:43:49;;;;;;;;;;;;;;;23.21;44.63;101524.34;7287454;19;153543;-60
2022/08/20 03:46:17;;;;;;;;;;;;;;;23.23;44.61;101524.84;7287878;19;155056;-59
2022/08/20 03:48:48;;;;;;;;;;;;;;;23.22;44.53;101525.16;7286820;19;153346;-59
2022/08/20 03:51:22;;;;;;;;;;;;;;;23.23;44.68;101515.56;7294002;19;153057;-59
2022/08/20 03:53:49;;;;;;;;;;;;;;;23.25;44.54;101524.53;7283117;19;152030;-59
2022/08/20 03:56:16;;;;;;;;;;;;;;;23.12;44.96;101520.59;7285706;19;152391;-59
2022/08/20 03:58:43;;;;;;;;;;;;;;;23.17;44.75;101517.63;7283305;19;153001;-59
2022/08/20 04:01:10;;;;;;;;;;;;;;;23.18;44.67;101521.28;7284867;19;153241;-59
2022/08/20 04:03:57;;;;;;;;;;;;;;;23.24;44.50;101514.41;7283600;19;156010;-59
2022/08/20 04:06:26;;;;;;;;;;;;;;;23.15;45.06;101517.13;7286620;19;153730;-60
2022/08/20 04:08:53;;;;;;;;;;;;;;;23.18;45.00;101508.03;7285351;19;151817;-59
2022/08/20 04:11:20;;;;;;;;;;;;;;;23.18;45.24;101512.84;7286911;19;153173;-59
2022/08/20 04:13:46;;;;;;;;;;;;;;;23.19;45.18;101515.34;7292129;19;153123;-59
2022/08/20 04:16:15;;;;;;;;;;;;;;;23.15;45.04;101522.75;7285000;19;152883;-59
2022/08/20 04:18:42;;;;;;;;;;;;;;;23.17;45.34;101520.44;7286193;19;153724;-59
2022/08/20 04:21:28;;;;;;;;;;;;;;;23.12;44.99;101514.94;7286266;19;152119;-59
2022/08/20 04:24:01;;;;;;;;;;;;;;;23.14;45.10;101515.44;7284583;19;153974;-60
2022/08/20 04:26:29;;;;;;;;;;;;;;;23.11;45.04;101518.06;7284753;19;153578;-59
2022/08/20 04:28:56;;;;;;;;;;;;;;;23.21;45.08;101518.72;7285390;19;152827;-59
2022/08/20 04:31:32;;;;;;;;;;;;;;;22.99;45.34;101515.75;7286976;19;153752;-59
2022/08/20 04:34:00;;;;;;;;;;;;;;;22.96;45.66;101520.03;7280862;19;154237;-59
2022/08/20 04:36:27;;;;;;;;;;;;;;;23.03;45.31;101517.63;7292663;19;152315;-59
2022/08/20 04:38:54;;;;;;;;;;;;;;;23.09;45.24;101512.72;7281562;19;152273;-59
2022/08/20 04:41:21;;;;;;;;;;;;;;;23.01;45.64;101528.38;7284537;19;152008;-59
2022/08/20 04:43:50;;;;;;;;;;;;;;;22.98;45.64;101528.19;7284423;19;153650;-59
2022/08/20 04:46:18;;;;;;;;;;;;;;;23.00;45.60;101531.50;7286252;19;153372;-59
2022/08/20 04:48:45;;;;;;;;;;;;;;;23.01;45.80;101531.22;7285263;19;152563;-59
2022/08/20 04:51:14;;;;;;;;;;;;;;;23.06;45.19;101524.63;7283438;19;153842;-59
2022/08/20 04:53:41;;;;;;;;;;;;;;;23.01;45.37;101536.84;7283983;19;153977;-59
2022/08/20 04:56:08;;;;;;;;;;;;;;;23.01;45.48;101536.84;7290917;19;152586;-59
2022/08/20 04:58:37;;;;;;;;;;;;;;;23.03;45.39;101534.53;7283837;19;152960;-59
2022/08/20 05:01:06;;;;;;;;;;;;;;;22.97;45.66;101532.13;7284386;19;152966;-59
2022/08/20 05:03:33;;;;;;;;;;;;;;;22.91;45.80;101527.75;7285612;19;152937;-59
2022/08/20 05:06:00;;;;;;;;;;;;;;;22.90;46.00;101526.06;7281164;19;154168;-58
2022/08/20 05:08:28;;;;;;;;;;;;;;;22.93;45.95;101534.75;7284463;19;152203;-59
2022/08/20 05:10:56;;;;;;;;;;;;;;;22.90;46.06;101529.72;7286190;19;152660;-59
2022/08/20 05:13:43;;;;;;;;;;;;;;;;;;7282517;19;157489;-59
2022/08/20 05:16:09;;;;;;;;;;;;;;;22.93;45.91;101526.28;7280863;19;157823;-59
2022/08/20 05:18:36;;;;;;;;;;;;;;;;;;7292034;19;152725;-59
2022/08/20 05:21:04;;;;;;;;;;;;;;;22.87;45.92;101535.16;7280743;19;161707;-58
2022/08/20 05:23:32;;;;;;;;;;;;;;;22.88;45.80;101539.63;7284480;19;153054;-59
2022/08/20 05:25:59;;;;;;;;;;;;;;;22.90;46.07;101541.00;7281955;19;153792;-59
2022/08/20 05:28:26;;;;;;;;;;;;;;;;;;7283933;19;152498;-59
2022/08/20 05:30:52;;;;;;;;;;;;;;;22.91;46.13;101544.66;7282271;19;181974;-59
2022/08/20 05:33:20;;;;;;;;;;;;;;;22.88;45.91;101545.28;7284011;19;153451;-59
2022/08/20 05:35:48;;;;;;;;;;;;;;;22.84;46.34;101553.53;7280776;19;152394;-59
2022/08/20 05:38:20;;;;;;;;;;;;;;;22.77;46.22;101557.88;7285080;19;153779;-59
2022/08/20 05:40:50;;;;;;;;;;;;;;;22.83;46.36;101551.00;7290652;19;153516;-59
2022/08/20 05:43:18;;;;;;;;;;;;;;;22.81;46.05;101562.56;7284294;19;153025;-59
2022/08/20 05:45:45;;;;;;;;;;;;;;;22.82;46.02;101564.25;7283570;19;154436;-59
2022/08/20 05:48:14;;;;;;;;;;;;;;;22.77;46.34;101560.69;7283404;19;153550;-59
2022/08/20 05:50:41;;;;;;;;;;;;;;;22.78;46.17;101563.19;7280963;19;153358;-59
2022/08/20 05:53:08;;;;;;;;;;;;;;;22.69;46.30;101567.00;7282368;19;153942;-59
2022/08/20 05:55:38;;;;;;;;;;;;;;;22.68;46.38;101560.53;7283278;19;152358;-59
2022/08/20 05:58:07;;;;;;;;;;;;;;;22.70;46.33;101563.91;7282298;19;154014;-59
2022/08/20 06:00:34;;;;;;;;;;;;;;;22.73;46.26;101565.25;7281098;19;153332;-59
2022/08/20 06:05:47;;;;;;;;;;;;;;;22.73;46.54;101568.91;7280758;19;154305;-59
2022/08/20 06:08:13;;;;;;;;;;;;;;;22.84;46.46;101569.59;7282477;19;153021;-59
2022/08/20 06:10:40;;;;;;;;;;;;;;;22.73;46.67;101568.06;7279895;19;153925;-59
2022/08/20 06:13:09;;;;;;;;;;;;;;;22.66;46.64;101570.44;7281620;19;153088;-59
2022/08/20 06:15:39;;;;;;;;;;;;;;;22.61;46.85;101574.19;7282331;19;151712;-59
2022/08/20 06:18:07;;;;;;;;;;;;;;;22.61;46.90;101571.34;7282977;19;153465;-59
2022/08/20 06:20:52;;;;;;;;;;;;;;;22.68;46.64;101577.41;7278763;19;153444;-59
2022/08/20 06:23:19;;;;;;;;;;;;;;;22.62;46.57;101573.84;7280105;19;151971;-59
2022/08/20 06:25:48;;;;;;;;;;;;;;;22.69;46.33;101569.81;7289681;19;154029;-59
2022/08/20 06:28:17;;;;;;;;;;;;;;;22.67;46.68;101578.56;7281842;19;152038;-59
2022/08/20 06:30:45;;;;;;;;;;;;;;;22.68;46.85;101579.41;7282042;19;152568;-59
2022/08/20 06:33:12;;;;;;;;;;;;;;;22.67;46.63;101581.38;7282622;19;153267;-59
2022/08/20 06:35:38;;;;;;;;;;;;;;;22.61;46.92;101586.28;7279174;19;152934;-59
2022/08/20 06:38:05;;;;;;;;;;;;;;;22.63;46.93;101583.97;7282215;19;152610;-59
2022/08/20 06:40:33;;;;;;;;;;;;;;;22.70;46.64;101591.25;7280374;19;153239;-59
2022/08/20 06:43:00;;;;;;;;;;;;;;;22.62;47.21;101592.75;7281962;19;152502;-59
2022/08/20 06:45:28;;;;;;;;;;;;;;;22.58;47.11;101583.22;7281325;19;154143;-58
2022/08/20 06:47:56;;;;;;;;;;;;;;;22.62;47.36;101589.94;7288447;19;152090;-59
2022/08/20 06:50:25;;;;;;;;;;;;;;;22.60;47.28;101583.75;7278937;19;152831;-59
2022/08/20 06:52:52;;;;;;;;;;;;;;;22.57;47.13;101593.69;7281237;19;153239;-59
2022/08/20 06:55:19;;;;;;;;;;;;;;;22.60;47.29;101580.94;7281805;19;155646;-59
2022/08/20 06:57:47;;;;;;;;;;;;;;;22.60;47.09;101583.75;7281973;19;152602;-59
2022/08/20 07:00:16;;;;;;;;;;;;;;;22.59;47.45;101577.28;7279060;19;153269;-59
2022/08/20 07:02:42;;;;;;;;;;;;;;;22.56;47.66;101589.19;7280180;19;153195;-59
2022/08/20 07:05:09;;;;;;;;;;;;;;;22.53;47.39;101581.31;7283008;19;154568;-59
2022/08/20 07:07:36;;;;;;;;;;;;;;;22.49;47.70;101580.28;7294372;19;153704;-59
2022/08/20 07:10:07;;;;;;;;;;;;;;;22.52;47.94;101581.66;7288844;19;153455;-59
2022/08/20 07:12:35;;;;;;;;;;;;;;;22.51;47.62;101583.63;7287012;19;153171;-59
2022/08/20 07:15:06;;;;;;;;;;;;;;;22.50;47.83;101578.28;7288857;19;152450;-59
2022/08/20 07:17:33;;;;;;;;;;;;;;;22.45;48.32;101575.56;7286818;19;153576;-59
2022/08/20 07:20:07;;;;;;;;;;;;;;;22.47;48.00;101570.47;7283973;19;154329;-59
2022/08/20 07:22:35;;;;;;;;;;;;;;;22.52;48.22;101578.84;7287887;19;152103;-59
2022/08/20 07:25:07;;;;;;;;;;;;;;;22.49;48.11;101565.34;7287888;19;152604;-59
2022/08/20 07:27:33;;;;;;;;;;;;;;;22.51;47.87;101560.25;7286621;19;153452;-59
2022/08/20 07:32:46;;;;;;;;;;;;;;;22.58;48.28;101572.78;7286285;19;153564;-59
2022/08/20 07:35:14;;;;;;;;;;;;;;;22.57;48.33;101579.59;7284763;19;152684;-59
2022/08/20 07:37:43;;;;;;;;;;;;;;;22.49;48.44;101574.63;7285728;19;152475;-59
2022/08/20 07:40:11;;;;;;;;;;;;;;;22.52;48.09;101576.84;7286356;19;153273;-59
2022/08/20 07:42:39;;;;;;;;;;;;;;;22.53;48.25;101586.16;7287525;19;151805;-59
2022/08/20 07:45:09;;;;;;;;;;;;;;;22.56;48.15;101592.00;7287651;19;152430;-59
2022/08/20 07:47:40;;;;;;;;;;;;;;;22.57;48.48;101590.03;7283950;19;153310;-59
2022/08/20 07:50:08;;;;;;;;;;;;;;;22.58;48.41;101589.69;7285183;19;152246;-59
2022/08/20 07:52:35;;;;;;;;;;;;;;;22.50;48.99;101589.56;7293363;19;153182;-59
2022/08/20 07:55:02;;;;;;;;;;;;;;;22.49;48.76;101580.28;7288096;19;152218;-59
2022/08/20 07:57:29;;;;;;;;;;;;;;;22.47;48.80;101581.72;7284590;19;152896;-59
2022/08/20 07:59:57;;;;;;;;;;;;;;;22.57;48.56;101590.88;7286346;19;153250;-59
2022/08/20 08:02:25;;;;;;;;;;;;;;;22.50;48.81;101584.75;7285079;19;152459;-59
2022/08/20 08:04:52;;;;;;;;;;;;;;;22.53;48.87;101595.41;7280785;19;153343;-59
2022/08/20 08:07:19;;;;;;;;;;;;;;;22.52;48.98;101588.13;7286853;19;153240;-59
2022/08/20 08:09:47;;;;;;;;;;;;;;;22.57;49.02;101592.84;7286749;19;153822;-59
2022/08/20 08:12:14;;;;;;;;;;;;;;;22.60;48.94;101592.22;7287544;19;154589;-59
2022/08/20 08:14:43;;;;;;;;;;;;;;;22.54;49.10;101588.63;7290391;19;153643;-59
2022/08/20 08:17:11;;;;;;;;;;;;;;;22.57;49.21;101585.22;7286658;19;152898;-59
2022/08/20 08:19:40;;;;;;;;;;;;;;;22.54;49.35;101587.78;7282621;19;153323;-59
2022/08/20 08:22:11;;;;;;;;;;;;;;;22.54;49.45;101584.97;7286531;19;152415;-59
2022/08/20 08:24:38;;;;;;;;;;;;;;;22.53;49.75;101591.78;7285923;19;152989;-59
2022/08/20 08:27:07;;;;;;;;;;;;;;;22.48;49.81;101589.88;7286652;19;153984;-59
2022/08/20 08:29:36;;;;;;;;;;;;;;;22.52;49.93;101590.94;7283982;19;152580;-59
2022/08/20 08:32:08;;;;;;;;;;;;;;;22.58;49.58;101586.88;7286495;19;155042;-59
2022/08/20 08:34:35;;;;;;;;;;;;;;;22.53;49.84;101574.88;7283134;19;154332;-59
2022/08/20 08:37:02;;;;;;;;;;;;;;;22.61;49.78;101580.66;7294013;19;152198;-59
2022/08/20 08:39:30;;;;;;;;;;;;;;;22.58;49.51;101583.22;7283968;19;153268;-59
2022/08/20 08:42:19;;;;;;;;;;;;;;;22.64;49.63;101587.63;7286723;19;152096;-59
2022/08/20 08:44:47;;;;;;;;;;;;;;;22.56;49.71;101588.34;7286891;19;154421;-59
2022/08/20 08:47:20;;;;;;;;;;;;;;;22.56;49.92;101582.72;7285592;19;154511;-59
2022/08/20 08:49:47;;;;;;;;;;;;;;;22.54;49.68;101571.75;7283909;19;151974;-59
2022/08/20 08:52:18;;;;;;;;;;;;;;;22.56;49.78;101568.63;7284879;19;153115;-59
2022/08/20 08:54:47;;;;;;;;;;;;;;;22.57;49.50;101573.13;7282562;19;153685;-59
2022/08/20 08:57:15;;;;;;;;;;;;;;;22.59;49.42;101582.09;7292766;19;153120;-59
2022/08/20 08:59:43;;;;;;;;;;;;;;;22.65;49.34;101566.78;7285263;19;154712;-59
2022/08/20 09:02:29;;;;;;;;;;;;;;;22.59;49.23;101563.22;7286439;19;152240;-59
2022/08/20 09:04:59;;;;;;;;;;;;;;;22.70;49.08;101578.00;7281080;19;153514;-59
2022/08/20 09:07:28;;;;;;;;;;;;;;;22.69;48.85;101570.66;7283854;19;152635;-59
2022/08/20 09:09:56;;;;;;;;;;;;;;;22.66;48.77;101576.06;7285839;19;152053;-59
2022/08/20 09:12:24;;;;;;;;;;;;;;;22.63;48.59;101569.91;7284957;19;152484;-59
2022/08/20 09:14:51;;;;;;;;;;;;;;;22.74;48.36;101561.31;7284507;19;153598;-59
2022/08/20 09:17:19;;;;;;;;;;;;;;;22.73;48.40;101560.47;7284651;19;153253;-59
2022/08/20 09:19:46;;;;;;;;;;;;;;;22.63;48.51;101566.25;7289417;19;153204;-59
2022/08/20 09:22:15;;;;;;;;;;;;;;;22.67;48.56;101561.66;7285790;19;152605;-58
2022/08/20 09:24:42;;;;;;;;;;;;;;;22.67;48.64;101563.66;7284520;19;151683;-59
2022/08/20 09:27:10;;;;;;;;;;;;;;;22.73;48.53;101568.06;7284159;19;153737;-59
2022/08/20 09:29:37;;;;;;;;;;;;;;;22.70;48.52;101561.09;7285077;19;152703;-59
2022/08/20 09:32:12;;;;;;;;;;;;;;;22.66;48.21;101573.25;7285640;19;153354;-59
2022/08/20 09:34:42;;;;;;;;;;;;;;;22.69;48.29;101570.66;7280790;19;153314;-59
2022/08/20 09:37:09;;;;;;;;;;;;;;;22.65;47.72;101563.97;7285235;19;153047;-59
2022/08/20 09:39:37;;;;;;;;;;;;;;;22.63;48.25;101569.91;7284381;19;153699;-59
2022/08/20 09:42:12;;;;;;;;;;;;;;;22.66;47.76;101581.69;7291126;19;154107;-58
2022/08/20 09:44:39;;;;;;;;;;;;;;;22.60;47.69;101575.31;7284389;19;153385;-59
2022/08/20 09:47:06;;;;;;;;;;;;;;;22.61;48.11;101568.53;7283281;19;152753;-59
2022/08/20 09:49:35;;;;;;;;;;;;;;;22.66;47.70;101573.25;7281672;19;152389;-58
2022/08/20 09:52:11;;;;;;;;;;;;;;;22.63;47.72;101561.44;7285699;19;153939;-59
2022/08/20 09:54:38;;;;;;;;;;;;;;;22.59;48.04;101571.66;7282245;19;154258;-59
2022/08/20 09:57:12;;;;;;;;;;;;;;;22.69;47.53;101564.19;7283621;19;152578;-59
2022/08/20 09:59:39;;;;;;;;;;;;;;;22.76;47.53;101559.84;7283457;19;153284;-58
2022/08/20 10:02:12;;;;;;;;;;;;;;;22.81;47.52;101573.00;7282494;19;153980;-59
2022/08/20 10:04:38;;;;;;;;;;;;;;;22.74;47.20;101559.31;7287418;19;152816;-58
2022/08/20 10:07:07;;;;;;;;;;;;;;;22.72;47.29;101558.78;7284765;19;154423;-58
2022/08/20 10:09:34;;;;;;;;;;;;;;;22.74;47.26;101547.22;7284020;19;152230;-58
2022/08/20 10:12:13;;;;;;;;;;;;;;;22.79;47.16;101539.53;7283662;19;153378;-61
2022/08/20 10:14:39;;;;;;;;;;;;;;;22.80;46.86;101540.38;7281848;19;154456;-58
2022/08/20 10:17:06;;;;;;;;;;;;;;;22.80;47.07;101548.81;7284298;19;152208;-58
2022/08/20 10:19:33;;;;;;;;;;;;;;;22.84;46.62;101545.06;7279894;19;153174;-58
2022/08/20 10:22:10;;;;;;;;;;;;;;;22.88;46.78;101543.28;7283813;19;154491;-60
2022/08/20 10:24:38;;;;;;;;;;;;;;;22.83;46.77;101540.56;7282857;19;153799;-60
2022/08/20 10:27:05;;;;;;;;;;;;;;;22.91;46.59;101544.66;7290250;19;154362;-60
2022/08/20 10:29:32;;;;;;;;;;;;;;;22.94;46.25;101538.41;7280979;19;152045;-60
2022/08/20 10:32:11;;;;;;;;;;;;;;;22.90;46.83;101542.97;7283878;19;152439;-60
2022/08/20 10:34:40;;;;;;;;;;;;;;;22.89;46.76;101530.88;7277853;19;153842;-60
2022/08/20 10:37:07;;;;;;;;;;;;;;;22.94;46.51;101530.75;7283023;19;153806;-60
2022/08/20 10:39:34;;;;;;;;;;;;;;;22.93;46.62;101526.28;7280498;19;153087;-60
2022/08/20 10:42:11;;;;;;;;;;;;;;;22.88;46.11;101531.19;7280514;19;152726;-60
2022/08/20 10:44:39;;;;;;;;;;;;;;;22.90;46.30;101526.06;7282081;19;152439;-60
2022/08/20 10:47:12;;;;;;;;;;;;;;;22.96;45.95;101531.31;7282965;19;153324;-60
2022/08/20 10:49:39;;;;;;;;;;;;;;;22.94;46.26;101533.59;7285983;19;153217;-60
2022/08/20 10:52:12;;;;;;;;;;;;;;;22.96;46.19;101539.75;7283027;19;152600;-60
2022/08/20 10:54:41;;;;;;;;;;;;;;;23.00;45.95;101539.97;7280771;19;154090;-60
2022/08/20 10:57:12;;;;;;;;;;;;;;;23.01;45.72;101536.00;7281507;19;151934;-60
2022/08/20 10:59:42;;;;;;;;;;;;;;;23.01;46.06;101517.13;7281481;19;152202;-60
2022/08/20 11:02:12;;;;;;;;;;;;;;;22.99;45.83;101524.19;7281766;19;153687;-60
2022/08/20 11:04:40;;;;;;;;;;;;;;;23.00;45.95;101518.25;7275384;19;152385;-60
2022/08/20 11:07:23;;;;;;;;;;;;;;;23.00;45.78;101506.13;7282543;19;151930;-60
2022/08/20 11:10:10;;;;;;;;;;;;;;;23.03;45.61;101514.00;7288007;19;155780;-60
2022/08/20 11:12:39;;;;;;;;;;;;;;;23.01;45.50;101514.28;7281522;19;153832;-60
2022/08/20 11:15:09;;;;;;;;;;;;;;;23.03;45.47;101511.97;7280169;19;152306;-60
2022/08/20 11:17:38;;;;;;;;;;;;;;;23.01;45.35;101514.28;7281061;19;152672;-60
2022/08/20 11:20:06;;;;;;;;;;;;;;;23.10;45.28;101514.41;7279857;19;153606;-60
2022/08/20 11:22:33;;;;;;;;;;;;;;;23.14;45.13;101514.59;7278810;19;153876;-60
2022/08/20 11:25:00;;;;;;;;;;;;;;;23.11;45.42;101515.25;7282189;19;151901;-60
2022/08/20 11:27:28;;;;;;;;;;;;;;;23.11;45.55;101518.91;7280274;19;153741;-60
2022/08/20 11:29:54;;;;;;;;;;;;;;;23.14;45.16;101512.63;7281190;19;154246;-60
2022/08/20 11:32:21;;;;;;;;;;;;;;;23.17;44.80;101511.19;7288644;19;152253;-60
2022/08/20 11:34:48;;;;;;;;;;;;;;;23.22;44.80;101509.06;7278194;19;153424;-60
2022/08/20 11:37:16;;;;;;;;;;;;;;;23.18;44.97;101496.75;7282006;19;152108;-60
2022/08/20 11:39:43;;;;;;;;;;;;;;;23.19;45.02;101498.44;7280338;19;152846;-60
2022/08/20 11:42:11;;;;;;;;;;;;;;;23.20;44.95;101517.03;7279658;19;152436;-61
2022/08/20 11:44:38;;;;;;;;;;;;;;;23.18;44.96;101499.56;7280229;19;152169;-60
2022/08/20 11:47:06;;;;;;;;;;;;;;;23.17;45.00;101495.06;7281595;19;152950;-60
2022/08/20 11:49:33;;;;;;;;;;;;;;;23.18;45.02;101498.75;7277936;19;152893;-60
2022/08/20 11:52:07;;;;;;;;;;;;;;;23.18;44.98;101507.19;7288495;19;152787;-60
2022/08/20 11:54:39;;;;;;;;;;;;;;;23.18;45.03;101508.03;7292336;19;152423;-60
2022/08/20 11:57:06;;;;;;;;;;;;;;;23.19;44.57;101497.59;7286686;19;151904;-60
2022/08/20 11:59:32;;;;;;;;;;;;;;;23.18;44.89;101493.94;7284081;19;152077;-60
2022/08/20 12:02:09;;;;;;;;;;;;;;;23.23;44.67;101495.81;7287240;19;153060;-60
2022/08/20 12:04:38;;;;;;;;;;;;;;;23.28;44.79;101501.34;7283785;19;152616;-60
2022/08/20 12:07:08;;;;;;;;;;;;;;;23.20;44.50;101505.75;7287236;19;152989;-60
2022/08/20 12:09:35;;;;;;;;;;;;;;;23.19;44.76;101500.41;7286111;19;153500;-60
2022/08/20 12:12:11;;;;;;;;;;;;;;;23.21;44.38;101498.13;7287141;19;154572;-61
2022/08/20 12:14:39;;;;;;;;;;;;;;;23.19;44.43;101498.44;7284532;19;153909;-60
2022/08/20 12:17:09;;;;;;;;;;;;;;;23.23;44.91;101507.94;7292324;19;153527;-60
2022/08/20 12:19:40;;;;;;;;;;;;;;;23.21;44.15;101504.59;7278416;19;152827;-60
2022/08/20 12:22:11;;;;;;;;;;;;;;;23.21;43.92;101504.59;7285075;19;154381;-60
2022/08/20 12:24:51;;;;;;;;;;;;;;;23.21;43.99;101515.03;7286038;19;152211;-60
2022/08/20 12:27:20;;;;;;;;;;;;;;;23.21;44.12;101492.50;7285256;19;152127;-60
2022/08/20 12:29:47;;;;;;;;;;;;;;;23.21;44.20;101498.97;7285188;19;153286;-60
2022/08/20 12:32:16;;;;;;;;;;;;;;;23.20;44.23;101497.28;7287281;19;152129;-60
2022/08/20 12:34:44;;;;;;;;;;;;;;;23.19;44.39;101491.97;7283732;19;153824;-60
2022/08/20 12:37:13;;;;;;;;;;;;;;;23.25;44.04;101491.56;7285101;19;154425;-60
2022/08/20 12:39:42;;;;;;;;;;;;;;;23.25;44.04;101488.72;7290148;19;152828;-60
2022/08/20 12:42:11;;;;;;;;;;;;;;;23.25;43.91;101499.16;7282048;19;153796;-60
2022/08/20 12:44:37;;;;;;;;;;;;;;;23.25;44.12;101494.38;7284616;19;152590;-60